EST,Max TemperatureF,Mean TemperatureF,Min TemperatureF,Max Dew PointF,MeanDew PointF,Min DewpointF,Max Humidity, Mean Humidity, Min Humidity, Max Sea Level PressureIn, Mean Sea Level PressureIn, Min Sea Level PressureIn, Max VisibilityMiles, Mean VisibilityMiles, Min VisibilityMiles, Max Wind SpeedMPH, Mean Wind SpeedMPH, Max Gust SpeedMPH,PrecipitationIn, CloudCover, Events, WindDirDegrees
2013-11-1,74,65,56,63,56,44,93,67,41,29.87,29.80,29.71,10,9,2,17,8,29,0.31,5,Rain,242
2013-11-2,67,57,46,46,41,35,86,61,36,30.05,29.90,29.81,10,10,10,21,8,35,T,0,,285
2013-11-3,64,53,41,39,36,31,82,56,30,30.31,30.19,30.06,10,10,10,10,5,25,0.00,0,,311
2013-11-4,60,53,45,37,34,32,71,54,36,30.48,30.41,30.34,10,10,10,17,9,22,0.00,0,,78
2013-11-5,61,52,42,43,34,29,74,53,32,30.50,30.43,30.37,10,10,10,17,10,23,0.00,1,,74
2013-11-6,70,60,50,53,49,44,89,72,55,30.37,30.27,30.14,10,10,5,15,8,29,T,7,Rain,92
2013-11-7,67,56,44,58,49,32,93,64,34,30.19,30.09,30.04,10,8,2,20,7,25,0.08,5,Rain,297
2013-11-8,61,50,38,31,25,14,70,43,16,30.33,30.26,30.19,10,10,10,10,4,13,0.00,0,,314
2013-11-9,57,47,37,39,30,25,76,54,32,30.38,30.31,30.24,10,10,10,10,3,29,0.00,0,,67
2013-11-10,73,59,45,37,33,27,71,45,19,30.26,30.23,30.17,10,10,10,13,6,20,0.00,0,,301
2013-11-11,63,52,40,41,30,26,76,52,27,30.34,30.25,30.19,10,10,10,15,4,26,0.00,0,,103
2013-11-12,63,48,32,39,29,12,89,63,36,30.44,30.22,30.13,10,10,10,23,10,29,0.00,1,,314
2013-11-13,49,37,24,20,13,2,74,45,15,30.58,30.50,30.45,10,10,7,9,2,15,0.00,0,,295
2013-11-14,56,42,28,28,18,12,92,55,18,30.51,30.42,30.33,10,10,9,8,2,33,0.00,0,,158
2013-11-15,50,44,38,47,35,19,93,62,31,30.33,30.26,30.19,10,8,2,9,4,23,0.14,8,Rain,50
2013-11-16,58,54,49,54,51,46,100,90,80,30.26,30.21,30.17,8,4,0,10,6,29,0.00,8,Fog,83
2013-11-17,60,58,56,59,56,53,100,93,86,30.20,30.06,29.95,10,3,0,12,5,15,0.24,8,Fog-Rain,100
2013-11-18,71,61,51,65,48,28,100,62,23,30.03,29.96,29.89,10,8,2,20,9,28,0.14,4,Rain,289
2013-11-19,58,49,40,31,28,25,62,48,33,30.19,30.11,30.01,10,10,10,14,5,18,0.00,0,,50
2013-11-20,53,46,39,29,27,26,59,49,38,30.37,30.30,30.21,10,10,10,20,12,30,0.00,4,,74
2013-11-21,50,48,46,47,42,30,93,70,46,30.44,30.39,30.35,10,7,2,17,10,24,T,8,Rain,81
2013-11-22,60,54,48,56,52,46,100,89,78,30.39,30.28,30.17,10,3,0,9,4,13,0.14,8,Fog-Rain,28
2013-11-23,61,50,39,56,47,25,100,71,42,30.23,30.16,30.12,10,7,2,15,9,22,0.01,5,Rain,291
2013-11-24,48,39,29,23,13,7,58,39,19,30.48,30.38,30.23,10,10,10,16,7,21,0.00,0,,5
2013-11-25,41,35,28,28,12,7,69,48,27,30.50,30.41,30.27,10,10,5,16,10,21,T,4,Rain,77
2013-11-26,49,41,32,47,39,28,100,93,85,30.23,29.87,29.67,9,3,1,18,9,25,1.91,8,Rain,53
2013-11-27,46,37,27,42,26,15,86,67,48,30.25,29.89,29.62,10,10,8,30,15,43,0.08,4,Rain,307
2013-11-28,48,35,22,23,19,16,84,55,26,30.48,30.39,30.25,10,10,9,10,3,24,0.00,0,,287
2013-11-29,59,44,28,28,23,7,92,54,15,30.53,30.49,30.44,10,10,8,9,4,25,0.00,0,,75
2013-11-30,49,42,34,26,22,20,61,48,34,30.58,30.48,30.36,10,10,10,17,8,23,0.00,2,,77